createdAt,value
2018-11-26T00:01:25.970Z,26.70
2018-11-26T00:03:53.979Z,26.97
2018-11-26T00:06:22.015Z,28.03
2018-11-26T00:08:50.039Z,27.23
2018-11-26T00:11:23.763Z,28.80
2018-11-26T00:13:51.803Z,28.40
2018-11-26T00:16:19.831Z,27.90
2018-11-26T00:18:47.879Z,27.60
2018-11-26T00:21:15.947Z,27.40
2018-11-26T00:23:43.979Z,27.03
2018-11-26T00:26:12.036Z,28.10
2018-11-26T00:28:40.077Z,27.27
2018-11-26T00:31:08.124Z,27.87
2018-11-26T00:33:42.738Z,27.03
2018-11-26T00:36:10.777Z,27.90
2018-11-26T00:38:38.949Z,27.47
2018-11-26T00:41:06.997Z,28.37
2018-11-26T00:43:35.033Z,28.23
2018-11-26T00:46:03.106Z,26.87
2018-11-26T00:48:31.165Z,27.13
2018-11-26T00:50:59.201Z,28.23
2018-11-26T00:53:27.231Z,28.87
2018-11-26T00:55:55.279Z,26.73
2018-11-26T00:58:23.591Z,28.53
2018-11-26T01:00:51.646Z,27.83
2018-11-26T01:03:19.681Z,28.57
2018-11-26T01:05:47.728Z,27.27
2018-11-26T01:08:15.803Z,26.77
2018-11-26T01:10:43.854Z,27.53
2018-11-26T01:13:11.901Z,28.13
2018-11-26T01:15:39.970Z,25.03
2018-11-26T01:18:08.028Z,27.43
2018-11-26T01:20:36.090Z,25.73
2018-11-26T01:23:04.214Z,26.33
2018-11-26T01:25:32.738Z,25.77
2018-11-26T01:28:00.778Z,25.70
2018-11-26T01:30:28.814Z,27.13
2018-11-26T01:32:56.898Z,27.27
2018-11-26T01:35:24.967Z,26.90
2018-11-26T01:37:53.026Z,24.33
2018-11-26T01:40:21.434Z,25.87
2018-11-26T01:42:49.560Z,23.83
2018-11-26T01:45:17.614Z,24.07
2018-11-26T01:47:45.663Z,23.30
2018-11-26T01:50:13.697Z,22.63
2018-11-26T01:52:41.762Z,23.23
2018-11-26T01:55:10.370Z,23.50
2018-11-26T01:57:38.511Z,24.53
2018-11-26T02:00:13.855Z,23.80
2018-11-26T02:02:42.098Z,23.07
2018-11-26T02:05:10.311Z,23.57
2018-11-26T02:07:38.395Z,23.30
2018-11-26T02:10:09.346Z,23.27
2018-11-26T02:12:37.423Z,25.00
2018-11-26T02:15:06.289Z,22.30
2018-11-26T02:17:34.353Z,22.93
2018-11-26T02:20:02.419Z,22.33
2018-11-26T02:22:30.479Z,22.17
2018-11-26T02:24:58.535Z,22.47
2018-11-26T02:27:26.591Z,21.87
2018-11-26T02:29:54.627Z,23.90
2018-11-26T02:32:22.667Z,23.00
2018-11-26T02:34:50.715Z,21.83
2018-11-26T02:37:18.749Z,21.90
2018-11-26T02:39:46.823Z,22.87
2018-11-26T02:42:14.848Z,23.67
2018-11-26T02:44:42.891Z,22.00
2018-11-26T02:47:10.942Z,21.43
2018-11-26T02:49:39.056Z,22.37
2018-11-26T02:52:07.076Z,21.67
2018-11-26T02:54:35.144Z,22.03
2018-11-26T02:57:03.184Z,22.00
2018-11-26T02:59:31.243Z,22.87
2018-11-26T03:01:59.276Z,22.77
2018-11-26T03:04:27.298Z,21.57
2018-11-26T03:06:55.332Z,22.90
2018-11-26T03:09:23.359Z,21.60
2018-11-26T03:11:51.396Z,21.50
2018-11-26T03:14:19.828Z,21.67
2018-11-26T03:16:47.865Z,22.77
2018-11-26T03:19:15.865Z,22.97
2018-11-26T03:21:43.889Z,23.10
2018-11-26T03:24:11.928Z,23.00
2018-11-26T03:26:39.968Z,23.07
2018-11-26T03:29:07.996Z,22.73
2018-11-26T03:31:36.035Z,23.00
2018-11-26T03:34:04.073Z,22.40
2018-11-26T03:36:32.092Z,23.07
2018-11-26T03:39:00.121Z,22.77
2018-11-26T03:41:28.145Z,23.20
2018-11-26T03:43:56.156Z,22.10
2018-11-26T03:46:24.216Z,23.13
2018-11-26T03:48:52.268Z,22.77
2018-11-26T03:51:20.320Z,22.40
2018-11-26T03:53:48.344Z,23.50
2018-11-26T03:56:16.385Z,22.43
2018-11-26T03:58:44.426Z,23.27
2018-11-26T04:01:12.488Z,23.37
2018-11-26T04:03:40.520Z,23.23
2018-11-26T04:06:08.564Z,23.30
2018-11-26T04:08:36.581Z,21.43
2018-11-26T04:11:05.349Z,22.67
2018-11-26T04:13:33.425Z,22.83
2018-11-26T04:16:01.469Z,22.10
2018-11-26T04:18:29.503Z,22.00
2018-11-26T04:20:57.516Z,22.77
2018-11-26T04:23:25.547Z,23.50
2018-11-26T04:25:53.555Z,22.80
2018-11-26T04:28:21.610Z,22.67
2018-11-26T04:30:49.639Z,21.23
2018-11-26T04:33:17.653Z,21.97
2018-11-26T04:35:52.301Z,21.63
2018-11-26T04:38:20.321Z,22.07
2018-11-26T04:40:48.369Z,22.60
2018-11-26T04:43:16.437Z,22.90
2018-11-26T04:45:44.522Z,23.33
2018-11-26T04:48:12.558Z,22.57
2018-11-26T04:50:40.614Z,23.10
2018-11-26T04:53:08.637Z,24.03
2018-11-26T04:55:36.661Z,22.77
2018-11-26T04:58:04.791Z,22.60
2018-11-26T05:00:32.910Z,22.20
2018-11-26T05:03:00.968Z,22.93
2018-11-26T05:05:29.021Z,23.07
2018-11-26T05:07:57.069Z,22.67
2018-11-26T05:10:25.181Z,22.93
2018-11-26T05:12:53.217Z,22.13
2018-11-26T05:15:21.386Z,22.33
2018-11-26T05:17:49.473Z,22.27
2018-11-26T05:20:17.516Z,22.37
2018-11-26T05:22:45.539Z,22.73
2018-11-26T05:25:13.614Z,22.27
2018-11-26T05:27:41.637Z,21.50
2018-11-26T05:30:10.373Z,23.20
2018-11-26T05:32:38.446Z,22.27
2018-11-26T05:35:07.064Z,21.60
2018-11-26T05:37:35.102Z,22.20
2018-11-26T05:40:03.148Z,22.27
2018-11-26T05:42:31.202Z,21.67
2018-11-26T05:44:59.302Z,21.80
2018-11-26T05:47:27.338Z,22.13
2018-11-26T05:49:55.390Z,23.27
2018-11-26T05:52:23.414Z,23.27
2018-11-26T05:54:51.490Z,23.07
2018-11-26T05:57:19.522Z,21.57
2018-11-26T05:59:47.574Z,23.10
2018-11-26T06:02:15.630Z,22.20
2018-11-26T06:04:43.698Z,22.87
2018-11-26T06:07:11.774Z,23.90
2018-11-26T06:09:39.875Z,23.87
2018-11-26T06:12:07.898Z,24.37
2018-11-26T06:14:35.948Z,23.70
2018-11-26T06:17:03.986Z,24.40
2018-11-26T06:19:32.047Z,25.53
2018-11-26T06:22:00.111Z,24.10
2018-11-26T06:24:28.126Z,24.03
2018-11-26T06:26:56.166Z,24.23
2018-11-26T06:29:24.165Z,24.97
2018-11-26T06:31:52.171Z,26.97
2018-11-26T06:34:20.155Z,26.80
2018-11-26T06:36:48.155Z,27.20
2018-11-26T06:39:16.154Z,26.60
2018-11-26T06:41:44.195Z,27.83
2018-11-26T06:44:12.203Z,27.03
2018-11-26T06:46:40.207Z,26.67
2018-11-26T06:49:08.211Z,23.47
2018-11-26T06:51:36.203Z,24.67
2018-11-26T06:54:04.215Z,25.07
2018-11-26T06:56:32.228Z,24.23
2018-11-26T06:59:00.227Z,26.00
2018-11-26T07:01:28.242Z,25.93
2018-11-26T07:03:56.248Z,26.03
2018-11-26T07:06:30.727Z,26.93
2018-11-26T07:08:58.743Z,24.00
2018-11-26T07:11:26.763Z,26.37
2018-11-26T07:13:54.787Z,24.80
2018-11-26T07:16:22.807Z,26.43
2018-11-26T07:18:50.819Z,27.97
2018-11-26T07:21:18.836Z,26.73
2018-11-26T07:23:46.843Z,28.30
2018-11-26T07:26:14.887Z,27.67
2018-11-26T07:28:42.892Z,26.53
2018-11-26T07:31:10.892Z,28.83
2018-11-26T07:33:38.919Z,32.07
2018-11-26T07:36:11.156Z,28.67
2018-11-26T07:38:34.980Z,27.77
2018-11-26T07:41:03.000Z,27.57
2018-11-26T07:43:30.991Z,33.30
2018-11-26T07:45:59.043Z,27.10
2018-11-26T07:48:27.052Z,25.40
2018-11-26T07:50:55.061Z,26.23
2018-11-26T07:53:23.057Z,27.20
2018-11-26T07:55:51.160Z,27.40
2018-11-26T07:58:19.176Z,29.33
2018-11-26T08:00:47.183Z,27.57
2018-11-26T08:03:15.180Z,27.63
2018-11-26T08:05:43.201Z,27.73
2018-11-26T08:08:11.221Z,28.87
2018-11-26T08:10:39.252Z,28.87
2018-11-26T08:13:07.296Z,30.03
2018-11-26T08:15:35.324Z,31.47
2018-11-26T08:18:03.416Z,31.70
2018-11-26T08:20:31.419Z,31.33
2018-11-26T08:22:59.464Z,30.90
2018-11-26T08:25:27.464Z,30.77
2018-11-26T08:27:55.446Z,33.50
2018-11-26T08:30:24.168Z,32.90
2018-11-26T08:32:52.780Z,32.47
2018-11-26T08:35:20.821Z,34.37
2018-11-26T08:37:54.238Z,35.00
2018-11-26T08:40:29.492Z,33.93
2018-11-26T08:43:15.319Z,35.77
2018-11-26T08:45:50.658Z,34.07
2018-11-26T08:48:31.003Z,33.07
2018-11-26T08:50:59.580Z,35.03
2018-11-26T08:53:27.656Z,34.20
2018-11-26T08:55:55.700Z,34.63
2018-11-26T08:58:23.764Z,35.67
2018-11-26T09:00:57.156Z,32.97
2018-11-26T09:03:30.652Z,34.93
2018-11-26T09:06:01.145Z,33.60
2018-11-26T09:08:29.769Z,33.17
2018-11-26T09:10:57.869Z,33.67
2018-11-26T09:13:25.921Z,32.80
2018-11-26T09:15:53.931Z,30.00
2018-11-26T09:18:21.925Z,31.97
2018-11-26T09:20:49.964Z,33.37
2018-11-26T09:23:17.965Z,34.57
2018-11-26T09:25:45.989Z,32.37
2018-11-26T09:28:14.005Z,33.17
2018-11-26T09:30:42.070Z,32.30
2018-11-26T09:33:10.101Z,32.60
2018-11-26T09:35:38.153Z,33.40
2018-11-26T09:38:06.233Z,34.60
2018-11-26T09:40:34.377Z,34.67
2018-11-26T09:43:02.389Z,33.77
2018-11-26T09:45:30.429Z,33.10
2018-11-26T09:47:58.821Z,33.60
2018-11-26T09:50:26.839Z,33.90
2018-11-26T09:52:55.854Z,33.80
2018-11-26T09:55:23.097Z,33.07
2018-11-26T09:57:51.125Z,33.63
2018-11-26T10:00:19.882Z,31.57
2018-11-26T10:02:48.573Z,33.03
2018-11-26T10:05:21.297Z,33.83
2018-11-26T10:07:49.391Z,34.07
2018-11-26T10:10:17.409Z,33.60
2018-11-26T10:12:45.565Z,34.43
2018-11-26T10:15:20.171Z,34.10
2018-11-26T10:17:48.333Z,34.10
2018-11-26T10:20:16.501Z,35.10
2018-11-26T10:22:45.030Z,33.17
2018-11-26T10:25:14.678Z,33.30
2018-11-26T10:27:49.157Z,33.23
2018-11-26T10:30:19.217Z,34.47
2018-11-26T10:32:47.669Z,32.40
2018-11-26T10:35:16.238Z,32.97
2018-11-26T10:37:44.353Z,33.17
2018-11-26T10:40:12.870Z,33.17
2018-11-26T10:42:40.947Z,32.13
2018-11-26T10:45:09.738Z,32.63
2018-11-26T10:47:37.746Z,39.60
2018-11-26T10:50:07.012Z,31.63
2018-11-26T10:52:35.034Z,30.60
2018-11-26T10:55:03.322Z,30.90
2018-11-26T10:57:31.306Z,31.60
2018-11-26T10:59:59.703Z,29.83
2018-11-26T11:02:39.539Z,32.57
2018-11-26T11:05:08.530Z,32.93
2018-11-26T11:07:36.918Z,33.00
2018-11-26T11:10:10.456Z,31.30
2018-11-26T11:12:38.958Z,31.57
2018-11-26T11:15:10.651Z,33.70
2018-11-26T11:17:39.342Z,33.10
2018-11-26T11:20:12.071Z,32.57
2018-11-26T11:22:40.459Z,31.93
2018-11-26T11:25:19.647Z,32.37
2018-11-26T11:27:48.263Z,31.63
2018-11-26T11:30:19.110Z,31.73
2018-11-26T11:32:47.378Z,33.40
2018-11-26T11:35:16.418Z,32.13
2018-11-26T11:37:46.162Z,31.40
2018-11-26T11:40:30.711Z,30.77
2018-11-26T11:43:00.486Z,30.47
2018-11-26T11:45:29.697Z,32.93
2018-11-26T11:47:58.118Z,30.07
2018-11-26T11:50:26.502Z,30.07
2018-11-26T11:53:59.422Z,30.70
2018-11-26T11:56:28.113Z,29.00
2018-11-26T11:58:56.511Z,30.10
2018-11-26T12:01:25.110Z,28.20
2018-11-26T12:03:53.530Z,29.37
2018-11-26T12:06:22.038Z,31.17
2018-11-26T12:08:51.242Z,32.03
2018-11-26T12:11:19.610Z,33.70
2018-11-26T12:13:47.894Z,32.57
2018-11-26T12:16:16.239Z,34.40
2018-11-26T12:18:44.246Z,34.50
2018-11-26T12:21:12.258Z,33.67
2018-11-26T12:23:40.306Z,33.90
2018-11-26T12:26:08.437Z,31.60
2018-11-26T12:28:36.517Z,31.77
2018-11-26T12:31:04.870Z,43.37
2018-11-26T12:33:32.942Z,30.17
2018-11-26T12:36:01.326Z,29.47
2018-11-26T12:38:29.844Z,30.37
2018-11-26T12:40:58.254Z,28.87
2018-11-26T12:43:26.595Z,27.63
2018-11-26T12:45:54.978Z,26.83
2018-11-26T12:48:23.266Z,27.47
2018-11-26T12:50:51.682Z,26.90
2018-11-26T12:53:20.014Z,26.57
2018-11-26T12:55:48.327Z,26.27
2018-11-26T12:58:16.586Z,24.37
2018-11-26T13:00:44.891Z,24.53
2018-11-26T13:03:13.703Z,21.90
2018-11-26T13:05:42.035Z,22.90
2018-11-26T13:08:10.288Z,23.00
2018-11-26T13:10:38.872Z,23.47
2018-11-26T13:13:08.635Z,24.10
2018-11-26T13:15:36.899Z,23.80
2018-11-26T13:18:05.331Z,24.87
2018-11-26T13:20:33.844Z,24.83
2018-11-26T13:23:02.100Z,24.23
2018-11-26T13:25:32.229Z,24.47
2018-11-26T13:28:01.543Z,26.77
2018-11-26T13:30:33.467Z,26.90
2018-11-26T13:33:03.412Z,25.07
2018-11-26T13:35:31.668Z,26.50
2018-11-26T13:37:59.942Z,25.47
2018-11-26T13:40:28.185Z,26.90
2018-11-26T13:42:56.444Z,27.07
2018-11-26T13:45:26.330Z,27.50
2018-11-26T13:47:54.704Z,26.97
2018-11-26T13:50:28.252Z,24.23
2018-11-26T13:52:56.884Z,26.00
2018-11-26T13:55:25.148Z,25.63
2018-11-26T13:57:53.394Z,26.07
2018-11-26T14:00:21.664Z,24.80
2018-11-26T14:02:49.993Z,21.67
2018-11-26T14:05:18.749Z,23.23
2018-11-26T14:07:47.336Z,22.13
2018-11-26T14:10:17.013Z,22.30
2018-11-26T14:12:46.210Z,21.23
2018-11-26T14:15:15.093Z,20.87
2018-11-26T14:17:43.349Z,19.70
2018-11-26T14:20:13.241Z,19.87
2018-11-26T14:22:41.553Z,19.67
2018-11-26T14:25:13.254Z,20.80
2018-11-26T14:27:41.867Z,18.87
2018-11-26T14:30:17.793Z,18.47
2018-11-26T14:32:45.826Z,18.43
2018-11-26T14:35:13.857Z,18.70
2018-11-26T14:37:41.965Z,18.43
2018-11-26T14:40:10.777Z,18.13
2018-11-26T14:42:38.842Z,19.03
2018-11-26T14:45:08.637Z,18.70
2018-11-26T14:47:36.669Z,19.47
2018-11-26T14:50:05.718Z,18.07
2018-11-26T14:52:33.758Z,19.00
2018-11-26T14:55:01.809Z,19.07
2018-11-26T14:57:30.762Z,19.20
2018-11-26T14:59:57.874Z,19.80
2018-11-26T15:02:25.926Z,18.63
2018-11-26T15:04:53.946Z,18.20
2018-11-26T15:07:21.962Z,18.93
2018-11-26T15:09:49.994Z,19.27
2018-11-26T15:12:18.213Z,20.47
2018-11-26T15:14:46.366Z,19.37
2018-11-26T15:17:14.406Z,18.93
2018-11-26T15:19:42.446Z,19.00
2018-11-26T15:22:10.786Z,19.87
2018-11-26T15:24:38.790Z,19.97
2018-11-26T15:27:07.182Z,20.80
2018-11-26T15:29:35.178Z,18.73
2018-11-26T15:32:03.338Z,19.83
2018-11-26T15:34:31.361Z,19.40
2018-11-26T15:36:59.418Z,19.70
2018-11-26T15:39:27.565Z,18.97
2018-11-26T15:41:55.634Z,18.90
2018-11-26T15:44:24.690Z,19.23
2018-11-26T15:46:52.702Z,18.23
2018-11-26T15:49:21.390Z,19.23
2018-11-26T15:51:49.653Z,21.80
2018-11-26T15:54:17.802Z,21.80
2018-11-26T15:56:45.868Z,20.97
2018-11-26T15:59:14.167Z,24.73
2018-11-26T16:01:42.175Z,22.23
2018-11-26T16:04:10.234Z,20.67
2018-11-26T16:06:38.402Z,23.63
2018-11-26T16:09:08.742Z,26.37
2018-11-26T16:11:37.070Z,22.53
2018-11-26T16:14:05.773Z,23.97
2018-11-26T16:16:33.815Z,25.87
2018-11-26T16:19:01.831Z,21.90
2018-11-26T16:21:30.360Z,22.97
2018-11-26T16:23:58.443Z,24.90
2018-11-26T16:26:27.518Z,21.93
2018-11-26T16:28:55.551Z,22.90
2018-11-26T16:31:23.535Z,20.93
2018-11-26T16:33:51.591Z,20.87
2018-11-26T16:36:19.702Z,20.67
2018-11-26T16:38:48.306Z,21.73
2018-11-26T16:41:16.346Z,20.83
2018-11-26T16:43:44.418Z,21.13
2018-11-26T16:46:12.438Z,23.43
2018-11-26T16:48:40.725Z,21.43
2018-11-26T16:51:08.754Z,21.70
2018-11-26T16:53:36.882Z,22.13
2018-11-26T16:56:04.894Z,21.33
2018-11-26T16:58:32.898Z,22.20
2018-11-26T17:01:01.346Z,21.90
2018-11-26T17:03:29.484Z,23.97
2018-11-26T17:05:57.570Z,22.87
2018-11-26T17:08:27.206Z,23.47
2018-11-26T17:10:55.211Z,21.97
2018-11-26T17:16:00.498Z,23.13
2018-11-26T17:18:29.407Z,24.67
2018-11-26T17:20:57.487Z,24.47
2018-11-26T17:23:25.654Z,22.53
2018-11-26T17:25:53.895Z,24.50
2018-11-26T17:28:21.911Z,23.87
2018-11-26T17:30:50.015Z,23.17
2018-11-26T17:33:18.075Z,23.90
2018-11-26T17:35:46.107Z,24.27
2018-11-26T17:38:14.112Z,23.77
2018-11-26T17:40:42.105Z,22.20
2018-11-26T17:43:11.059Z,23.33
2018-11-26T17:45:39.123Z,23.17
2018-11-26T17:48:07.178Z,24.00
2018-11-26T17:50:36.019Z,22.97
2018-11-26T17:53:05.119Z,23.50
2018-11-26T17:55:33.147Z,23.07
2018-11-26T17:58:01.248Z,23.70
2018-11-26T18:00:30.744Z,23.70
2018-11-26T18:02:58.759Z,23.57
2018-11-26T18:05:27.503Z,23.60
2018-11-26T18:07:56.671Z,22.97
2018-11-26T18:10:24.671Z,23.77
2018-11-26T18:12:52.709Z,23.00
2018-11-26T18:15:20.719Z,24.70
2018-11-26T18:17:48.731Z,25.40
2018-11-26T18:20:17.323Z,26.93
2018-11-26T18:22:46.035Z,23.23
2018-11-26T18:25:14.947Z,23.20
2018-11-26T18:27:45.491Z,23.53
2018-11-26T18:30:16.727Z,24.07
2018-11-26T18:32:44.757Z,23.20
2018-11-26T18:35:12.792Z,23.93
2018-11-26T18:37:40.796Z,23.83
2018-11-26T18:40:10.316Z,24.17
2018-11-26T18:42:38.336Z,21.83
2018-11-26T18:45:07.579Z,22.83
2018-11-26T18:47:35.636Z,22.83
2018-11-26T18:50:04.041Z,24.57
2018-11-26T18:52:32.024Z,24.57
2018-11-26T18:55:00.375Z,23.30
2018-11-26T18:57:28.424Z,24.53
2018-11-26T18:59:56.499Z,22.17
2018-11-26T19:02:24.491Z,23.67
2018-11-26T19:04:52.544Z,23.93
2018-11-26T19:07:20.681Z,23.90
2018-11-26T19:09:48.730Z,22.60
2018-11-26T19:12:16.742Z,22.93
2018-11-26T19:14:44.729Z,23.63
2018-11-26T19:17:12.754Z,22.17
2018-11-26T19:19:42.210Z,22.30
2018-11-26T19:22:08.786Z,21.13
2018-11-26T19:24:37.173Z,22.33
2018-11-26T19:27:05.229Z,22.43
2018-11-26T19:29:33.245Z,22.27
2018-11-26T19:32:01.274Z,23.43
2018-11-26T19:34:29.328Z,22.03
2018-11-26T19:36:57.461Z,23.97
2018-11-26T19:39:25.495Z,23.93
2018-11-26T19:41:53.693Z,22.00
2018-11-26T19:44:21.801Z,22.20
2018-11-26T19:46:49.944Z,22.83
2018-11-26T19:49:18.068Z,21.40
2018-11-26T19:51:46.160Z,20.77
2018-11-26T19:54:14.300Z,21.67
2018-11-26T19:56:42.468Z,21.40
2018-11-26T19:59:10.633Z,21.57
2018-11-26T20:01:38.853Z,22.17
2018-11-26T20:04:18.791Z,25.37
2018-11-26T20:06:46.875Z,23.63
2018-11-26T20:09:15.088Z,24.07
2018-11-26T20:11:43.165Z,22.93
2018-11-26T20:14:11.217Z,22.73
2018-11-26T20:16:40.340Z,22.23
2018-11-26T20:19:08.368Z,21.47
2018-11-26T20:21:36.721Z,20.90
2018-11-26T20:24:04.868Z,21.60
2018-11-26T20:26:33.157Z,21.60
2018-11-26T20:29:01.337Z,21.77
2018-11-26T20:31:29.477Z,22.77
2018-11-26T20:33:57.637Z,21.77
2018-11-26T20:36:25.801Z,21.33
2018-11-26T20:38:53.849Z,22.37
2018-11-26T20:41:21.949Z,21.97
2018-11-26T20:43:51.064Z,21.83
2018-11-26T20:46:19.273Z,23.57
2018-11-26T20:48:47.412Z,21.53
2018-11-26T20:51:15.464Z,23.13
2018-11-26T20:53:43.516Z,21.47
2018-11-26T20:56:12.628Z,24.07
2018-11-26T20:58:40.684Z,22.33
2018-11-26T21:01:08.740Z,22.80
2018-11-26T21:03:36.979Z,22.70
2018-11-26T21:06:05.480Z,24.13
2018-11-26T21:08:33.733Z,22.63
2018-11-26T21:11:01.997Z,24.27
2018-11-26T21:13:30.308Z,24.17
2018-11-26T21:15:58.565Z,24.53
2018-11-26T21:18:26.856Z,23.33
2018-11-26T21:20:55.135Z,23.37
2018-11-26T21:23:25.173Z,23.53
2018-11-26T21:25:53.628Z,23.60
2018-11-26T21:28:21.860Z,24.77
2018-11-26T21:30:52.268Z,24.00
2018-11-26T21:33:18.405Z,23.87
2018-11-26T21:35:46.701Z,24.07
2018-11-26T21:38:14.920Z,24.37
2018-11-26T21:40:43.189Z,25.33
2018-11-26T21:43:11.552Z,25.57
2018-11-26T21:45:43.912Z,25.60
2018-11-26T21:48:12.205Z,23.40
2018-11-26T21:50:40.449Z,23.57
2018-11-26T21:53:09.165Z,24.07
2018-11-26T21:55:37.445Z,23.90
2018-11-26T21:58:06.028Z,23.47
2018-11-26T22:00:34.507Z,24.97
2018-11-26T22:03:09.805Z,24.13
2018-11-26T22:05:38.364Z,23.20
2018-11-26T22:08:07.001Z,23.23
2018-11-26T22:10:35.824Z,23.53
2018-11-26T22:13:04.089Z,24.00
2018-11-26T22:15:32.344Z,23.93
2018-11-26T22:18:00.569Z,23.87
2018-11-26T22:20:29.537Z,24.07
2018-11-26T22:22:57.797Z,23.70
2018-11-26T22:25:26.057Z,23.23
2018-11-26T22:27:54.553Z,23.50
2018-11-26T22:30:27.389Z,23.43
2018-11-26T22:32:55.601Z,23.73
2018-11-26T22:35:23.827Z,25.27
2018-11-26T22:37:52.113Z,24.23
2018-11-26T22:40:21.421Z,24.60
2018-11-26T22:42:49.486Z,24.10
2018-11-26T22:45:34.888Z,25.10
2018-11-26T22:48:04.893Z,25.77
2018-11-26T22:50:32.933Z,25.57
2018-11-26T22:53:00.981Z,25.33
2018-11-26T22:55:29.037Z,24.07
2018-11-26T22:57:57.073Z,24.73
2018-11-26T23:00:27.781Z,25.30
2018-11-26T23:02:57.341Z,24.10
2018-11-26T23:05:25.409Z,24.70
2018-11-26T23:07:53.506Z,25.40
2018-11-26T23:10:21.533Z,24.30
2018-11-26T23:12:49.578Z,25.00
2018-11-26T23:15:17.849Z,25.00
2018-11-26T23:17:46.349Z,24.47
2018-11-26T23:20:14.998Z,25.17
2018-11-26T23:22:43.045Z,23.23
2018-11-26T23:25:12.701Z,25.37
2018-11-26T23:27:41.057Z,24.33
2018-11-26T23:30:16.617Z,25.10
2018-11-26T23:32:45.954Z,25.03
2018-11-26T23:35:14.278Z,23.93
2018-11-26T23:37:42.554Z,24.57
2018-11-26T23:40:11.814Z,23.07
2018-11-26T23:42:40.130Z,24.37
2018-11-26T23:45:10.817Z,24.53
2018-11-26T23:47:39.149Z,22.80
2018-11-26T23:50:09.838Z,24.37
2018-11-26T23:52:38.936Z,23.97
2018-11-26T23:55:08.652Z,24.33
2018-11-26T23:57:36.986Z,24.00
